sensor_id;sensor_type;location;lat;lon;timestamp;pressure;altitude;pressure_sealevel;temperature;humidity
70730;BME280;58315;53.336;55.932;2022-07-22T00:01:38;99178.56;;;19.45;54.29
70730;BME280;58315;53.336;55.932;2022-07-22T00:04:04;99185.19;;;19.49;54.43
70730;BME280;58315;53.336;55.932;2022-07-22T00:06:30;99185.97;;;19.56;54.27
70730;BME280;58315;53.336;55.932;2022-07-22T00:08:56;99189.69;;;19.55;54.19
70730;BME280;58315;53.336;55.932;2022-07-22T00:11:23;99182.88;;;19.59;54.25
70730;BME280;58315;53.336;55.932;2022-07-22T00:13:49;99188.47;;;19.58;54.33
70730;BME280;58315;53.336;55.932;2022-07-22T00:16:15;99193.81;;;19.51;54.79
70730;BME280;58315;53.336;55.932;2022-07-22T00:18:41;99196.69;;;19.56;54.65
70730;BME280;58315;53.336;55.932;2022-07-22T00:21:08;99200.84;;;19.65;54.35
70730;BME280;58315;53.336;55.932;2022-07-22T00:23:34;99198.59;;;19.69;54.28
70730;BME280;58315;53.336;55.932;2022-07-22T00:26:00;99212.41;;;19.66;54.45
70730;BME280;58315;53.336;55.932;2022-07-22T00:28:26;99215.25;;;19.58;54.31
70730;BME280;58315;53.336;55.932;2022-07-22T00:30:52;99210.28;;;19.48;54.76
70730;BME280;58315;53.336;55.932;2022-07-22T00:33:17;99206.78;;;19.47;54.62
70730;BME280;58315;53.336;55.932;2022-07-22T00:35:43;99204.31;;;19.39;54.83
70730;BME280;58315;53.336;55.932;2022-07-22T00:38:09;99219.78;;;19.31;54.91
70730;BME280;58315;53.336;55.932;2022-07-22T00:40:35;99220.19;;;19.27;55.15
70730;BME280;58315;53.336;55.932;2022-07-22T00:43:01;99217.28;;;19.22;55.24
70730;BME280;58315;53.336;55.932;2022-07-22T00:45:27;99222.22;;;19.25;55.57
70730;BME280;58315;53.336;55.932;2022-07-22T00:47:54;99217.69;;;19.26;55.66
70730;BME280;58315;53.336;55.932;2022-07-22T00:50:20;99227.19;;;19.28;55.76
70730;BME280;58315;53.336;55.932;2022-07-22T00:52:47;99224.91;;;19.32;55.70
70730;BME280;58315;53.336;55.932;2022-07-22T00:55:13;99226.56;;;19.33;55.72
70730;BME280;58315;53.336;55.932;2022-07-22T00:57:41;99229.03;;;19.41;55.61
70730;BME280;58315;53.336;55.932;2022-07-22T01:00:10;99228.88;;;19.49;55.20
70730;BME280;58315;53.336;55.932;2022-07-22T01:02:37;99229.88;;;19.55;54.82
70730;BME280;58315;53.336;55.932;2022-07-22T01:05:05;99229.91;;;19.62;54.42
70730;BME280;58315;53.336;55.932;2022-07-22T01:07:31;99231.94;;;19.60;54.22
70730;BME280;58315;53.336;55.932;2022-07-22T01:09:57;99233.81;;;19.59;54.11
70730;BME280;58315;53.336;55.932;2022-07-22T01:12:24;99232.19;;;19.85;54.09
70730;BME280;58315;53.336;55.932;2022-07-22T01:14:50;99239.53;;;20.62;53.46
70730;BME280;58315;53.336;55.932;2022-07-22T01:17:16;99233.00;;;21.28;51.61
70730;BME280;58315;53.336;55.932;2022-07-22T01:19:42;99239.94;;;21.99;51.01
70730;BME280;58315;53.336;55.932;2022-07-22T01:22:08;99244.22;;;22.50;48.87
70730;BME280;58315;53.336;55.932;2022-07-22T01:24:34;99245.63;;;22.71;48.80
70730;BME280;58315;53.336;55.932;2022-07-22T01:27:00;99251.41;;;22.56;48.23
70730;BME280;58315;53.336;55.932;2022-07-22T01:29:28;99246.44;;;22.35;48.79
70730;BME280;58315;53.336;55.932;2022-07-22T01:31:54;99240.00;;;22.11;48.99
70730;BME280;58315;53.336;55.932;2022-07-22T01:34:20;99245.50;;;21.79;49.52
70730;BME280;58315;53.336;55.932;2022-07-22T01:36:46;99242.16;;;21.52;50.25
70730;BME280;58315;53.336;55.932;2022-07-22T01:39:12;99234.25;;;21.26;50.86
70730;BME280;58315;53.336;55.932;2022-07-22T01:41:38;99234.69;;;21.23;51.05
70730;BME280;58315;53.336;55.932;2022-07-22T01:44:07;99243.16;;;21.19;51.29
70730;BME280;58315;53.336;55.932;2022-07-22T01:46:33;99235.59;;;21.10;51.73
70730;BME280;58315;53.336;55.932;2022-07-22T01:48:59;99236.47;;;20.97;51.96
70730;BME280;58315;53.336;55.932;2022-07-22T01:51:30;99238.34;;;20.90;52.42
70730;BME280;58315;53.336;55.932;2022-07-22T01:53:57;99236.06;;;20.93;52.22
70730;BME280;58315;53.336;55.932;2022-07-22T01:56:23;99241.66;;;20.92;52.45
70730;BME280;58315;53.336;55.932;2022-07-22T01:58:49;99250.75;;;20.91;52.41
70730;BME280;58315;53.336;55.932;2022-07-22T02:01:20;99243.56;;;20.85;52.74
70730;BME280;58315;53.336;55.932;2022-07-22T02:03:47;99255.94;;;20.86;52.83
70730;BME280;58315;53.336;55.932;2022-07-22T02:06:13;99252.22;;;20.80;52.86
70730;BME280;58315;53.336;55.932;2022-07-22T02:08:39;99251.81;;;20.77;53.23
70730;BME280;58315;53.336;55.932;2022-07-22T02:11:13;99255.97;;;20.79;53.32
70730;BME280;58315;53.336;55.932;2022-07-22T02:13:59;99249.78;;;20.79;53.07
70730;BME280;58315;53.336;55.932;2022-07-22T02:16:28;99256.38;;;20.76;53.48
70730;BME280;58315;53.336;55.932;2022-07-22T02:18:54;99253.91;;;20.75;53.31
70730;BME280;58315;53.336;55.932;2022-07-22T02:21:20;99256.59;;;20.75;54.01
70730;BME280;58315;53.336;55.932;2022-07-22T02:23:46;99248.56;;;20.75;53.90
70730;BME280;58315;53.336;55.932;2022-07-22T02:26:12;99257.19;;;20.77;53.94
70730;BME280;58315;53.336;55.932;2022-07-22T02:28:38;99262.16;;;20.73;54.03
70730;BME280;58315;53.336;55.932;2022-07-22T02:31:04;99256.59;;;20.81;53.76
70730;BME280;58315;53.336;55.932;2022-07-22T02:33:31;99260.66;;;20.90;53.82
70730;BME280;58315;53.336;55.932;2022-07-22T02:35:57;99263.50;;;21.02;53.75
70730;BME280;58315;53.336;55.932;2022-07-22T02:38:23;99269.72;;;21.03;53.94
70730;BME280;58315;53.336;55.932;2022-07-22T02:40:49;99274.03;;;21.04;54.05
70730;BME280;58315;53.336;55.932;2022-07-22T02:43:15;99267.19;;;21.08;53.83
70730;BME280;58315;53.336;55.932;2022-07-22T02:45:42;99266.13;;;21.15;53.70
70730;BME280;58315;53.336;55.932;2022-07-22T02:48:08;99270.03;;;21.19;53.63
70730;BME280;58315;53.336;55.932;2022-07-22T02:50:35;99272.03;;;21.31;53.52
70730;BME280;58315;53.336;55.932;2022-07-22T02:53:04;99274.88;;;21.42;53.74
70730;BME280;58315;53.336;55.932;2022-07-22T02:55:35;99274.25;;;21.47;53.27
70730;BME280;58315;53.336;55.932;2022-07-22T02:58:04;99278.31;;;21.56;53.75
70730;BME280;58315;53.336;55.932;2022-07-22T03:00:31;99278.63;;;21.73;53.17
70730;BME280;58315;53.336;55.932;2022-07-22T03:02:57;99279.59;;;22.04;52.87
70730;BME280;58315;53.336;55.932;2022-07-22T03:05:23;99278.91;;;22.77;52.55
70730;BME280;58315;53.336;55.932;2022-07-22T03:07:55;99280.34;;;24.35;50.69
70730;BME280;58315;53.336;55.932;2022-07-22T03:10:21;99278.81;;;26.06;48.69
70730;BME280;58315;53.336;55.932;2022-07-22T03:12:49;99283.16;;;27.50;45.75
70730;BME280;58315;53.336;55.932;2022-07-22T03:15:16;99283.56;;;28.71;41.16
70730;BME280;58315;53.336;55.932;2022-07-22T03:17:42;99289.28;;;29.58;40.87
70730;BME280;58315;53.336;55.932;2022-07-22T03:20:10;99294.53;;;30.25;39.47
70730;BME280;58315;53.336;55.932;2022-07-22T03:22:36;99301.16;;;30.99;38.48
70730;BME280;58315;53.336;55.932;2022-07-22T03:25:04;99288.97;;;31.41;36.56
70730;BME280;58315;53.336;55.932;2022-07-22T03:27:30;99292.00;;;32.08;36.86
70730;BME280;58315;53.336;55.932;2022-07-22T03:29:56;99293.97;;;32.61;35.19
70730;BME280;58315;53.336;55.932;2022-07-22T03:32:22;99299.28;;;33.19;34.60
70730;BME280;58315;53.336;55.932;2022-07-22T03:34:48;99292.81;;;33.53;33.26
70730;BME280;58315;53.336;55.932;2022-07-22T03:37:14;99303.84;;;33.48;33.42
70730;BME280;58315;53.336;55.932;2022-07-22T03:39:42;99303.94;;;33.94;32.78
70730;BME280;58315;53.336;55.932;2022-07-22T03:42:10;99300.38;;;34.13;31.98
70730;BME280;58315;53.336;55.932;2022-07-22T03:44:43;99302.53;;;34.16;32.16
70730;BME280;58315;53.336;55.932;2022-07-22T03:47:09;99306.56;;;34.78;31.96
70730;BME280;58315;53.336;55.932;2022-07-22T03:49:35;99308.66;;;35.37;31.63
70730;BME280;58315;53.336;55.932;2022-07-22T03:52:01;99297.72;;;35.45;30.17
70730;BME280;58315;53.336;55.932;2022-07-22T03:54:27;99299.28;;;35.74;29.88
70730;BME280;58315;53.336;55.932;2022-07-22T03:56:54;99301.13;;;36.32;29.58
70730;BME280;58315;53.336;55.932;2022-07-22T03:59:20;99296.03;;;36.17;30.21
70730;BME280;58315;53.336;55.932;2022-07-22T04:01:47;99293.53;;;36.60;29.59
70730;BME280;58315;53.336;55.932;2022-07-22T04:04:13;99297.06;;;37.01;28.66
70730;BME280;58315;53.336;55.932;2022-07-22T04:06:44;99308.41;;;37.08;28.49
70730;BME280;58315;53.336;55.932;2022-07-22T04:09:25;99303.16;;;37.63;28.83
70730;BME280;58315;53.336;55.932;2022-07-22T04:11:51;99301.34;;;37.59;27.94
70730;BME280;58315;53.336;55.932;2022-07-22T04:14:18;99298.44;;;37.64;27.77
70730;BME280;58315;53.336;55.932;2022-07-22T04:16:45;99290.31;;;37.76;28.41
70730;BME280;58315;53.336;55.932;2022-07-22T04:19:12;99287.06;;;38.56;27.78
70730;BME280;58315;53.336;55.932;2022-07-22T04:21:53;99291.28;;;38.92;27.00
70730;BME280;58315;53.336;55.932;2022-07-22T04:24:21;99293.09;;;38.79;27.04
70730;BME280;58315;53.336;55.932;2022-07-22T04:26:47;99294.59;;;39.36;26.01
70730;BME280;58315;53.336;55.932;2022-07-22T04:29:13;99289.94;;;39.69;26.14
70730;BME280;58315;53.336;55.932;2022-07-22T04:31:40;99288.50;;;40.17;25.75
70730;BME280;58315;53.336;55.932;2022-07-22T04:34:13;99285.75;;;40.54;25.32
70730;BME280;58315;53.336;55.932;2022-07-22T04:36:39;99288.75;;;40.98;24.74
70730;BME280;58315;53.336;55.932;2022-07-22T04:39:05;99289.59;;;41.11;23.50
70730;BME280;58315;53.336;55.932;2022-07-22T04:41:32;99292.59;;;40.93;24.16
70730;BME280;58315;53.336;55.932;2022-07-22T04:43:59;99293.50;;;41.22;23.99
70730;BME280;58315;53.336;55.932;2022-07-22T04:46:28;99291.38;;;41.43;23.26
70730;BME280;58315;53.336;55.932;2022-07-22T04:48:55;99294.94;;;41.32;23.80
70730;BME280;58315;53.336;55.932;2022-07-22T04:51:21;99294.28;;;41.23;23.73
70730;BME280;58315;53.336;55.932;2022-07-22T04:53:50;99296.50;;;41.57;22.79
70730;BME280;58315;53.336;55.932;2022-07-22T04:56:19;99295.31;;;41.71;23.36
70730;BME280;58315;53.336;55.932;2022-07-22T04:58:45;99290.88;;;42.10;23.07
70730;BME280;58315;53.336;55.932;2022-07-22T05:01:11;99289.47;;;42.32;23.22
70730;BME280;58315;53.336;55.932;2022-07-22T05:03:38;99291.69;;;42.26;22.83
70730;BME280;58315;53.336;55.932;2022-07-22T05:06:05;99278.09;;;42.37;22.64
70730;BME280;58315;53.336;55.932;2022-07-22T05:08:35;99296.50;;;42.13;21.42
70730;BME280;58315;53.336;55.932;2022-07-22T05:11:02;99290.78;;;42.06;21.66
70730;BME280;58315;53.336;55.932;2022-07-22T05:13:28;99287.00;;;41.99;22.21
70730;BME280;58315;53.336;55.932;2022-07-22T05:15:54;99290.34;;;42.52;21.77
70730;BME280;58315;53.336;55.932;2022-07-22T05:18:21;99289.38;;;42.76;21.92
70730;BME280;58315;53.336;55.932;2022-07-22T05:20:47;99290.50;;;43.26;21.29
70730;BME280;58315;53.336;55.932;2022-07-22T05:23:13;99284.03;;;43.38;21.41
70730;BME280;58315;53.336;55.932;2022-07-22T05:25:39;99287.19;;;43.75;21.59
70730;BME280;58315;53.336;55.932;2022-07-22T05:28:06;99285.09;;;44.11;20.77
70730;BME280;58315;53.336;55.932;2022-07-22T05:30:35;99279.00;;;43.63;20.03
70730;BME280;58315;53.336;55.932;2022-07-22T05:33:03;99281.66;;;43.98;20.72
70730;BME280;58315;53.336;55.932;2022-07-22T05:35:52;99277.97;;;44.13;20.69
70730;BME280;58315;53.336;55.932;2022-07-22T05:38:19;99276.16;;;44.24;19.86
70730;BME280;58315;53.336;55.932;2022-07-22T05:40:45;99284.78;;;44.16;20.40
70730;BME280;58315;53.336;55.932;2022-07-22T05:43:12;99282.84;;;44.20;20.43
70730;BME280;58315;53.336;55.932;2022-07-22T05:45:38;99276.38;;;44.35;20.30
70730;BME280;58315;53.336;55.932;2022-07-22T05:48:04;99289.06;;;44.56;20.42
70730;BME280;58315;53.336;55.932;2022-07-22T05:50:32;99280.63;;;44.75;20.38
70730;BME280;58315;53.336;55.932;2022-07-22T05:52:58;99282.25;;;44.76;20.19
70730;BME280;58315;53.336;55.932;2022-07-22T05:55:24;99275.03;;;44.75;20.17
70730;BME280;58315;53.336;55.932;2022-07-22T05:57:51;99268.69;;;44.51;19.32
70730;BME280;58315;53.336;55.932;2022-07-22T06:00:17;99277.28;;;44.20;19.81
70730;BME280;58315;53.336;55.932;2022-07-22T06:02:44;99270.25;;;44.03;20.08
70730;BME280;58315;53.336;55.932;2022-07-22T06:05:15;99267.41;;;43.99;19.56
70730;BME280;58315;53.336;55.932;2022-07-22T06:07:42;99264.31;;;44.27;20.04
70730;BME280;58315;53.336;55.932;2022-07-22T06:10:10;99261.56;;;44.77;19.76
70730;BME280;58315;53.336;55.932;2022-07-22T06:12:37;99266.22;;;44.00;18.74
70730;BME280;58315;53.336;55.932;2022-07-22T06:15:03;99270.66;;;43.63;18.31
70730;BME280;58315;53.336;55.932;2022-07-22T06:17:33;99253.06;;;43.20;19.07
70730;BME280;58315;53.336;55.932;2022-07-22T06:20:00;99260.59;;;43.39;19.33
70730;BME280;58315;53.336;55.932;2022-07-22T06:22:26;99259.75;;;42.99;20.17
70730;BME280;58315;53.336;55.932;2022-07-22T06:24:53;99252.56;;;42.98;20.22
70730;BME280;58315;53.336;55.932;2022-07-22T06:27:19;99258.91;;;42.63;19.66
70730;BME280;58315;53.336;55.932;2022-07-22T06:29:47;99253.19;;;42.72;19.80
70730;BME280;58315;53.336;55.932;2022-07-22T06:32:13;99245.56;;;42.06;19.72
70730;BME280;58315;53.336;55.932;2022-07-22T06:34:39;99241.06;;;41.57;20.64
70730;BME280;58315;53.336;55.932;2022-07-22T06:37:08;99246.75;;;41.08;20.82
70730;BME280;58315;53.336;55.932;2022-07-22T06:39:34;99246.06;;;40.13;21.40
70730;BME280;58315;53.336;55.932;2022-07-22T06:42:14;99240.81;;;38.53;22.05
70730;BME280;58315;53.336;55.932;2022-07-22T06:45:10;99231.81;;;37.27;22.70
70730;BME280;58315;53.336;55.932;2022-07-22T06:47:48;99233.94;;;35.93;23.83
70730;BME280;58315;53.336;55.932;2022-07-22T06:50:15;99232.00;;;35.49;24.10
70730;BME280;58315;53.336;55.932;2022-07-22T06:52:41;99238.09;;;35.23;24.55
70730;BME280;58315;53.336;55.932;2022-07-22T06:55:09;99238.47;;;34.39;25.40
70730;BME280;58315;53.336;55.932;2022-07-22T06:57:41;99228.09;;;33.90;25.72
70730;BME280;58315;53.336;55.932;2022-07-22T07:00:09;99220.13;;;33.60;25.96
70730;BME280;58315;53.336;55.932;2022-07-22T07:02:49;99224.06;;;33.87;26.35
70730;BME280;58315;53.336;55.932;2022-07-22T07:05:15;99223.00;;;34.02;26.28
70730;BME280;58315;53.336;55.932;2022-07-22T07:07:41;99225.25;;;34.27;26.22
70730;BME280;58315;53.336;55.932;2022-07-22T07:10:08;99234.41;;;34.23;26.33
70730;BME280;58315;53.336;55.932;2022-07-22T07:12:55;99222.41;;;33.72;26.62
70730;BME280;58315;53.336;55.932;2022-07-22T07:15:26;99218.06;;;33.33;26.78
70730;BME280;58315;53.336;55.932;2022-07-22T07:17:58;99215.25;;;33.01;28.12
70730;BME280;58315;53.336;55.932;2022-07-22T07:20:25;99213.63;;;33.19;28.03
70730;BME280;58315;53.336;55.932;2022-07-22T07:22:51;99225.56;;;32.85;27.93
70730;BME280;58315;53.336;55.932;2022-07-22T07:25:17;99221.81;;;32.57;27.61
70730;BME280;58315;53.336;55.932;2022-07-22T07:27:43;99219.31;;;32.60;27.83
70730;BME280;58315;53.336;55.932;2022-07-22T07:30:12;99212.03;;;32.75;27.42
70730;BME280;58315;53.336;55.932;2022-07-22T07:32:39;99218.63;;;32.93;27.73
70730;BME280;58315;53.336;55.932;2022-07-22T07:35:06;99217.09;;;33.05;27.98
70730;BME280;58315;53.336;55.932;2022-07-22T07:37:32;99214.06;;;33.26;29.94
70730;BME280;58315;53.336;55.932;2022-07-22T07:39:59;99222.66;;;33.57;29.94
70730;BME280;58315;53.336;55.932;2022-07-22T07:42:26;99218.63;;;33.68;29.89
70730;BME280;58315;53.336;55.932;2022-07-22T07:44:53;99216.91;;;33.72;27.87
70730;BME280;58315;53.336;55.932;2022-07-22T07:47:19;99216.22;;;33.80;27.58
70730;BME280;58315;53.336;55.932;2022-07-22T07:49:48;99213.19;;;33.96;28.17
70730;BME280;58315;53.336;55.932;2022-07-22T07:52:16;99215.19;;;34.09;28.02
70730;BME280;58315;53.336;55.932;2022-07-22T07:54:42;99218.47;;;33.92;27.51
70730;BME280;58315;53.336;55.932;2022-07-22T07:57:09;99217.41;;;33.60;27.56
70730;BME280;58315;53.336;55.932;2022-07-22T07:59:37;99207.31;;;33.37;27.20
70730;BME280;58315;53.336;55.932;2022-07-22T08:02:04;99205.31;;;33.24;29.67
70730;BME280;58315;53.336;55.932;2022-07-22T08:04:30;99206.72;;;33.40;28.35
70730;BME280;58315;53.336;55.932;2022-07-22T08:06:56;99206.59;;;33.50;28.34
70730;BME280;58315;53.336;55.932;2022-07-22T08:09:24;99206.94;;;33.44;31.23
70730;BME280;58315;53.336;55.932;2022-07-22T08:11:50;99204.09;;;33.68;29.46
70730;BME280;58315;53.336;55.932;2022-07-22T08:14:46;99207.06;;;33.71;30.25
70730;BME280;58315;53.336;55.932;2022-07-22T08:17:29;99209.34;;;33.83;28.17
70730;BME280;58315;53.336;55.932;2022-07-22T08:19:55;99208.47;;;33.69;28.56
70730;BME280;58315;53.336;55.932;2022-07-22T08:22:21;99204.28;;;33.57;27.71
70730;BME280;58315;53.336;55.932;2022-07-22T08:24:48;99201.72;;;33.47;27.97
70730;BME280;58315;53.336;55.932;2022-07-22T08:27:16;99212.44;;;33.25;28.35
70730;BME280;58315;53.336;55.932;2022-07-22T08:29:42;99218.06;;;32.96;28.83
70730;BME280;58315;53.336;55.932;2022-07-22T08:32:09;99205.50;;;32.95;27.89
70730;BME280;58315;53.336;55.932;2022-07-22T08:34:35;99204.47;;;33.09;28.80
70730;BME280;58315;53.336;55.932;2022-07-22T08:37:01;99207.84;;;33.39;28.54
70730;BME280;58315;53.336;55.932;2022-07-22T08:39:27;99218.06;;;33.52;29.63
70730;BME280;58315;53.336;55.932;2022-07-22T08:41:56;99206.22;;;33.57;28.42
70730;BME280;58315;53.336;55.932;2022-07-22T08:44:23;99204.94;;;33.30;27.30
70730;BME280;58315;53.336;55.932;2022-07-22T08:46:49;99215.13;;;32.87;28.01
70730;BME280;58315;53.336;55.932;2022-07-22T08:49:19;99203.97;;;32.83;27.83
70730;BME280;58315;53.336;55.932;2022-07-22T08:51:52;99199.16;;;32.75;28.46
70730;BME280;58315;53.336;55.932;2022-07-22T08:54:20;99204.88;;;32.98;28.26
70730;BME280;58315;53.336;55.932;2022-07-22T08:56:51;99200.09;;;33.08;28.20
70730;BME280;58315;53.336;55.932;2022-07-22T08:59:18;99199.09;;;32.80;27.53
70730;BME280;58315;53.336;55.932;2022-07-22T09:02:06;99192.38;;;32.73;27.87
70730;BME280;58315;53.336;55.932;2022-07-22T09:04:59;99195.16;;;32.86;28.39
70730;BME280;58315;53.336;55.932;2022-07-22T09:09:56;99194.94;;;32.40;28.23
70730;BME280;58315;53.336;55.932;2022-07-22T09:12:58;99193.06;;;32.35;28.73
70730;BME280;58315;53.336;55.932;2022-07-22T09:15:48;99192.34;;;32.25;28.42
70730;BME280;58315;53.336;55.932;2022-07-22T09:18:50;99189.50;;;32.35;28.07
70730;BME280;58315;53.336;55.932;2022-07-22T09:21:41;99184.63;;;32.32;27.84
70730;BME280;58315;53.336;55.932;2022-07-22T09:24:32;99186.38;;;32.47;28.32
70730;BME280;58315;53.336;55.932;2022-07-22T09:27:27;99185.56;;;32.70;28.39
70730;BME280;58315;53.336;55.932;2022-07-22T09:30:15;99186.16;;;32.86;28.79
70730;BME280;58315;53.336;55.932;2022-07-22T09:32:50;99188.56;;;32.69;27.62
70730;BME280;58315;53.336;55.932;2022-07-22T09:36:04;99184.53;;;32.42;27.95
70730;BME280;58315;53.336;55.932;2022-07-22T09:38:33;99186.72;;;32.40;28.46
70730;BME280;58315;53.336;55.932;2022-07-22T09:41:01;99187.81;;;32.44;27.72
70730;BME280;58315;53.336;55.932;2022-07-22T09:43:27;99182.47;;;32.29;27.81
70730;BME280;58315;53.336;55.932;2022-07-22T09:45:59;99176.09;;;32.14;27.60
70730;BME280;58315;53.336;55.932;2022-07-22T09:48:46;99181.19;;;32.21;28.07
70730;BME280;58315;53.336;55.932;2022-07-22T09:51:33;99168.38;;;32.22;28.49
70730;BME280;58315;53.336;55.932;2022-07-22T09:54:27;99179.13;;;32.37;28.56
70730;BME280;58315;53.336;55.932;2022-07-22T09:56:54;99164.53;;;32.23;28.18
70730;BME280;58315;53.336;55.932;2022-07-22T09:59:21;99180.91;;;32.23;28.07
70730;BME280;58315;53.336;55.932;2022-07-22T10:02:09;99175.44;;;31.99;28.71
70730;BME280;58315;53.336;55.932;2022-07-22T10:04:36;99166.44;;;31.98;28.61
70730;BME280;58315;53.336;55.932;2022-07-22T10:07:06;99175.50;;;31.93;28.39
70730;BME280;58315;53.336;55.932;2022-07-22T10:09:37;99171.19;;;31.87;28.54
70730;BME280;58315;53.336;55.932;2022-07-22T10:12:06;99174.50;;;32.08;28.18
70730;BME280;58315;53.336;55.932;2022-07-22T10:14:34;99166.56;;;32.12;28.02
70730;BME280;58315;53.336;55.932;2022-07-22T10:17:01;99164.22;;;32.00;28.24
70730;BME280;58315;53.336;55.932;2022-07-22T10:19:27;99168.19;;;31.89;28.75
70730;BME280;58315;53.336;55.932;2022-07-22T10:21:54;99155.84;;;31.91;29.05
70730;BME280;58315;53.336;55.932;2022-07-22T10:24:20;99162.81;;;31.74;28.44
70730;BME280;58315;53.336;55.932;2022-07-22T10:26:58;99161.56;;;31.61;29.07
70730;BME280;58315;53.336;55.932;2022-07-22T10:29:45;99153.09;;;31.62;28.61
70730;BME280;58315;53.336;55.932;2022-07-22T10:37:38;99156.97;;;31.85;28.81
70730;BME280;58315;53.336;55.932;2022-07-22T10:45:33;99157.31;;;31.79;29.00
70730;BME280;58315;53.336;55.932;2022-07-22T10:48:01;99155.00;;;31.28;29.29
70730;BME280;58315;53.336;55.932;2022-07-22T10:55:33;99141.88;;;31.35;29.90
70730;BME280;58315;53.336;55.932;2022-07-22T10:58:00;99150.75;;;31.51;30.04
70730;BME280;58315;53.336;55.932;2022-07-22T11:00:26;99138.09;;;31.31;29.78
70730;BME280;58315;53.336;55.932;2022-07-22T11:02:52;99139.41;;;31.38;29.80
70730;BME280;58315;53.336;55.932;2022-07-22T11:05:26;99131.94;;;31.49;29.40
70730;BME280;58315;53.336;55.932;2022-07-22T11:07:52;99126.13;;;31.56;29.53
70730;BME280;58315;53.336;55.932;2022-07-22T11:10:20;99128.75;;;31.66;29.12
70730;BME280;58315;53.336;55.932;2022-07-22T11:12:48;99137.34;;;31.54;29.18
70730;BME280;58315;53.336;55.932;2022-07-22T11:15:15;99139.97;;;31.64;29.36
70730;BME280;58315;53.336;55.932;2022-07-22T11:17:41;99147.00;;;31.41;28.52
70730;BME280;58315;53.336;55.932;2022-07-22T11:20:10;99131.31;;;31.23;28.66
70730;BME280;58315;53.336;55.932;2022-07-22T11:22:37;99141.06;;;31.29;28.74
70730;BME280;58315;53.336;55.932;2022-07-22T11:25:06;99137.53;;;31.29;28.79
70730;BME280;58315;53.336;55.932;2022-07-22T11:27:33;99137.09;;;31.11;28.65
70730;BME280;58315;53.336;55.932;2022-07-22T11:29:59;99148.13;;;31.01;28.64
70730;BME280;58315;53.336;55.932;2022-07-22T11:32:27;99146.97;;;31.07;28.52
70730;BME280;58315;53.336;55.932;2022-07-22T11:34:59;99140.31;;;31.18;28.97
70730;BME280;58315;53.336;55.932;2022-07-22T11:37:26;99141.72;;;31.16;28.73
70730;BME280;58315;53.336;55.932;2022-07-22T11:40:19;99139.56;;;31.47;28.92
70730;BME280;58315;53.336;55.932;2022-07-22T11:42:45;99139.19;;;31.25;28.55
70730;BME280;58315;53.336;55.932;2022-07-22T11:45:11;99142.56;;;31.11;28.99
70730;BME280;58315;53.336;55.932;2022-07-22T11:47:37;99145.16;;;30.92;29.38
70730;BME280;58315;53.336;55.932;2022-07-22T11:50:03;99143.72;;;31.05;29.34
70730;BME280;58315;53.336;55.932;2022-07-22T11:52:29;99139.50;;;31.18;29.02
70730;BME280;58315;53.336;55.932;2022-07-22T11:54:55;99134.53;;;30.91;29.53
70730;BME280;58315;53.336;55.932;2022-07-22T11:57:21;99132.69;;;31.15;29.51
70730;BME280;58315;53.336;55.932;2022-07-22T11:59:47;99128.81;;;31.27;29.00
70730;BME280;58315;53.336;55.932;2022-07-22T12:02:13;99123.88;;;31.34;29.31
70730;BME280;58315;53.336;55.932;2022-07-22T12:04:40;99130.28;;;31.48;29.22
70730;BME280;58315;53.336;55.932;2022-07-22T12:07:06;99116.78;;;31.33;28.85
70730;BME280;58315;53.336;55.932;2022-07-22T12:09:35;99124.19;;;31.27;29.58
70730;BME280;58315;53.336;55.932;2022-07-22T12:12:03;99124.34;;;31.41;29.35
70730;BME280;58315;53.336;55.932;2022-07-22T12:14:31;99126.41;;;31.54;29.50
70730;BME280;58315;53.336;55.932;2022-07-22T12:17:07;99130.81;;;31.50;29.52
70730;BME280;58315;53.336;55.932;2022-07-22T12:19:37;99128.00;;;31.60;29.77
70730;BME280;58315;53.336;55.932;2022-07-22T12:22:06;99122.53;;;31.31;30.07
70730;BME280;58315;53.336;55.932;2022-07-22T12:27:11;99121.47;;;31.22;29.97
70730;BME280;58315;53.336;55.932;2022-07-22T12:32:08;99124.16;;;30.93;30.49
70730;BME280;58315;53.336;55.932;2022-07-22T12:34:40;99117.44;;;30.75;30.34
70730;BME280;58315;53.336;55.932;2022-07-22T12:37:18;99115.47;;;30.86;30.28
70730;BME280;58315;53.336;55.932;2022-07-22T12:42:34;99120.72;;;30.72;30.70
70730;BME280;58315;53.336;55.932;2022-07-22T12:45:05;99119.94;;;30.66;30.74
70730;BME280;58315;53.336;55.932;2022-07-22T12:50:39;99111.25;;;30.59;30.81
70730;BME280;58315;53.336;55.932;2022-07-22T12:53:08;99111.25;;;30.59;30.70
70730;BME280;58315;53.336;55.932;2022-07-22T12:55:36;99112.22;;;30.84;30.88
70730;BME280;58315;53.336;55.932;2022-07-22T12:58:04;99102.66;;;30.86;30.78
70730;BME280;58315;53.336;55.932;2022-07-22T13:00:35;99116.06;;;30.83;30.71
70730;BME280;58315;53.336;55.932;2022-07-22T13:03:02;99102.72;;;30.71;30.95
70730;BME280;58315;53.336;55.932;2022-07-22T13:05:28;99103.31;;;30.63;30.83
70730;BME280;58315;53.336;55.932;2022-07-22T13:07:54;99097.56;;;30.69;30.90
70730;BME280;58315;53.336;55.932;2022-07-22T13:10:24;99091.97;;;30.95;30.41
70730;BME280;58315;53.336;55.932;2022-07-22T13:12:53;99093.50;;;31.06;30.54
70730;BME280;58315;53.336;55.932;2022-07-22T13:15:20;99096.81;;;31.03;30.58
70730;BME280;58315;53.336;55.932;2022-07-22T13:17:47;99099.81;;;31.02;31.03
70730;BME280;58315;53.336;55.932;2022-07-22T13:20:17;99095.38;;;31.11;30.62
70730;BME280;58315;53.336;55.932;2022-07-22T13:22:45;99095.06;;;31.17;30.97
70730;BME280;58315;53.336;55.932;2022-07-22T13:25:12;99103.19;;;31.22;30.37
70730;BME280;58315;53.336;55.932;2022-07-22T13:27:38;99089.78;;;31.26;30.33
70730;BME280;58315;53.336;55.932;2022-07-22T13:30:05;99093.44;;;31.11;30.67